LZB974 LBWN-LBSF

Flight info

Callsign LZB974
Flight time 0h 52m
Altitude 30000
Route DICXA N605 GOL
Aircraft A320/M-SDE3FGHIRWY/LB1

Departure

Time 2026-05-07 10:58
Airport Varna Airport (LBWN)

Arrival

Time 2026-05-07 11:50
Airport Sofia Airport (LBSF)
Time Latitude Longitude Altitude Speed Heading
2026-05-07 10:50 43.23613 27.82527 222 ft 0 kts 64°
2026-05-07 10:53 43.23614 27.82531 224 ft 1 kts 64°
2026-05-07 10:54 43.23597 27.82576 222 ft 10 kts 156°
2026-05-07 10:54 43.23573 27.82513 222 ft 8 kts 275°
2026-05-07 10:54 43.23580 27.82441 222 ft 8 kts 277°
2026-05-07 10:54 43.23589 27.82303 222 ft 16 kts 262°
2026-05-07 10:55 43.23536 27.82257 222 ft 14 kts 190°
2026-05-07 10:55 43.23480 27.82178 222 ft 12 kts 271°
2026-05-07 10:55 43.23495 27.81999 222 ft 27 kts 276°
2026-05-07 10:55 43.23517 27.81746 222 ft 26 kts 276°
2026-05-07 10:56 43.23537 27.81509 222 ft 24 kts 277°
2026-05-07 10:56 43.23559 27.81289 222 ft 23 kts 277°
2026-05-07 10:56 43.23578 27.81085 222 ft 21 kts 277°
2026-05-07 10:56 43.23539 27.80937 222 ft 12 kts 218°
2026-05-07 10:57 43.23464 27.80928 222 ft 11 kts 158°
2026-05-07 10:57 43.23388 27.80981 221 ft 14 kts 152°
2026-05-07 10:57 43.23325 27.81061 221 ft 9 kts 104°
2026-05-07 10:57 43.23316 27.81160 221 ft 13 kts 97°
2026-05-07 10:58 43.23276 27.81602 223 ft 92 kts 97°
2026-05-07 10:58 43.23165 27.82837 358 ft 155 kts 98°
2026-05-07 10:58 43.23015 27.84390 1091 ft 173 kts 98°
2026-05-07 10:58 43.22864 27.86057 1991 ft 184 kts 98°
2026-05-07 10:59 43.22685 27.87906 2492 ft 207 kts 102°
2026-05-07 10:59 43.21904 27.89661 2948 ft 235 kts 141°
2026-05-07 10:59 43.20295 27.90431 3486 ft 262 kts 179°
2026-05-07 10:59 43.18502 27.89753 4299 ft 275 kts 207°
2026-05-07 11:00 43.16865 27.88344 5234 ft 280 kts 216°
2026-05-07 11:00 43.15273 27.86759 6155 ft 287 kts 217°
2026-05-07 11:00 43.13618 27.85168 7033 ft 293 kts 215°
2026-05-07 11:00 43.11888 27.83657 7916 ft 297 kts 212°
2026-05-07 11:01 43.10095 27.82231 8858 ft 300 kts 211°
2026-05-07 11:01 43.08349 27.80659 9759 ft 301 kts 227°
2026-05-07 11:01 43.07210 27.78303 10574 ft 298 kts 255°
2026-05-07 11:01 43.06975 27.75521 11269 ft 300 kts 278°
2026-05-07 11:02 43.07192 27.72619 11538 ft 323 kts 280°
2026-05-07 11:02 43.07493 27.69427 11823 ft 344 kts 281°
2026-05-07 11:02 43.07816 27.66182 12448 ft 352 kts 281°
2026-05-07 11:02 43.08140 27.62838 13198 ft 357 kts 280°
2026-05-07 11:03 43.08453 27.59444 13948 ft 362 kts 280°
2026-05-07 11:03 43.08757 27.56008 14608 ft 366 kts 279°
2026-05-07 11:03 43.09053 27.52550 15280 ft 370 kts 279°
2026-05-07 11:03 43.09347 27.49041 15946 ft 373 kts 279°
2026-05-07 11:04 43.09644 27.45495 16628 ft 377 kts 279°
2026-05-07 11:04 43.09946 27.41947 17284 ft 381 kts 279°
2026-05-07 11:04 43.10297 27.38316 17945 ft 383 kts 284°
2026-05-07 11:04 43.11022 27.34804 18579 ft 384 kts 294°
2026-05-07 11:05 43.12075 27.31448 19172 ft 386 kts 296°
2026-05-07 11:05 43.13151 27.28074 19769 ft 389 kts 296°
2026-05-07 11:05 43.14235 27.24664 20372 ft 392 kts 296°
2026-05-07 11:05 43.15328 27.21219 20963 ft 394 kts 296°
2026-05-07 11:06 43.16426 27.17765 21551 ft 397 kts 296°
2026-05-07 11:06 43.17535 27.14281 22119 ft 400 kts 296°
2026-05-07 11:06 43.18649 27.10775 22659 ft 403 kts 296°
2026-05-07 11:06 43.19611 27.07152 23187 ft 408 kts 287°
2026-05-07 11:07 43.20106 27.03296 23694 ft 414 kts 277°
2026-05-07 11:07 43.20105 26.99323 24129 ft 419 kts 269°
2026-05-07 11:07 43.19937 26.95319 24547 ft 421 kts 270°
2026-05-07 11:07 43.19774 26.91304 24968 ft 423 kts 270°
2026-05-07 11:08 43.19617 26.87274 25371 ft 425 kts 270°
2026-05-07 11:08 43.19463 26.83217 25774 ft 427 kts 270°
2026-05-07 11:08 43.19311 26.79147 26170 ft 429 kts 270°
2026-05-07 11:08 43.19155 26.75055 26569 ft 431 kts 270°
2026-05-07 11:09 43.18991 26.70944 26949 ft 432 kts 270°
2026-05-07 11:09 43.18819 26.66823 27332 ft 434 kts 270°
2026-05-07 11:09 43.18648 26.62679 27694 ft 436 kts 270°
2026-05-07 11:09 43.18507 26.58526 28065 ft 437 kts 271°
2026-05-07 11:10 43.18393 26.54357 28411 ft 439 kts 271°
2026-05-07 11:10 43.18290 26.50169 28740 ft 440 kts 271°
2026-05-07 11:10 43.18186 26.45970 29049 ft 442 kts 271°
2026-05-07 11:10 43.18076 26.41754 29357 ft 444 kts 271°
2026-05-07 11:11 43.17956 26.37525 29656 ft 445 kts 271°
2026-05-07 11:11 43.17829 26.33278 29938 ft 446 kts 271°
2026-05-07 11:11 43.17700 26.29096 30044 ft 442 kts 271°
2026-05-07 11:11 43.17564 26.24922 30052 ft 436 kts 271°
2026-05-07 11:12 43.17296 26.16596 30055 ft 434 kts 271°
2026-05-07 11:12 43.16999 26.08403 30050 ft 433 kts 270°
2026-05-07 11:13 43.16630 26.00163 30025 ft 433 kts 269°
2026-05-07 11:13 43.16253 25.91921 30030 ft 433 kts 269°
2026-05-07 11:14 43.15885 25.83701 30018 ft 432 kts 269°
2026-05-07 11:14 43.15517 25.75497 30012 ft 432 kts 269°
2026-05-07 11:15 43.15161 25.67285 30015 ft 431 kts 270°
2026-05-07 11:15 43.14892 25.59092 30011 ft 431 kts 270°
2026-05-07 11:16 43.14641 25.50880 30024 ft 431 kts 270°
2026-05-07 11:16 43.14364 25.42746 30019 ft 430 kts 270°
2026-05-07 11:17 43.14068 25.34561 30028 ft 430 kts 270°
2026-05-07 11:17 43.13775 25.26385 30035 ft 430 kts 270°
2026-05-07 11:18 43.13472 25.18211 30041 ft 429 kts 270°
2026-05-07 11:18 43.13175 25.10042 30040 ft 429 kts 270°
2026-05-07 11:19 43.12872 25.01890 30053 ft 429 kts 270°
2026-05-07 11:19 43.12554 24.93741 30050 ft 428 kts 269°
2026-05-07 11:20 43.12229 24.85602 30059 ft 428 kts 269°
2026-05-07 11:20 43.11904 24.77476 30060 ft 427 kts 269°
2026-05-07 11:21 43.11575 24.69415 30062 ft 426 kts 269°
2026-05-07 11:21 43.11229 24.61317 30060 ft 426 kts 269°
2026-05-07 11:22 43.10878 24.53233 30065 ft 425 kts 269°
2026-05-07 11:22 43.10535 24.45166 29877 ft 425 kts 269°
2026-05-07 11:23 43.10361 24.41126 29596 ft 426 kts 269°
2026-05-07 11:23 43.10182 24.37073 29321 ft 427 kts 269°
2026-05-07 11:23 43.10000 24.33009 29037 ft 428 kts 269°
2026-05-07 11:23 43.09816 24.28981 28760 ft 418 kts 268°
2026-05-07 11:24 43.09439 24.25091 28492 ft 408 kts 260°
2026-05-07 11:24 43.08671 24.21407 28224 ft 399 kts 253°
2026-05-07 11:24 43.07566 24.17973 27957 ft 391 kts 245°
2026-05-07 11:24 43.06185 24.14809 27692 ft 383 kts 241°
2026-05-07 11:25 43.04786 24.11765 27435 ft 375 kts 241°
2026-05-07 11:25 43.03414 24.08779 27176 ft 368 kts 241°
2026-05-07 11:25 43.02061 24.05830 26916 ft 364 kts 241°
2026-05-07 11:25 43.00722 24.02908 26663 ft 362 kts 241°
2026-05-07 11:26 42.99388 23.99994 26303 ft 361 kts 241°
2026-05-07 11:26 42.98052 23.97080 25695 ft 364 kts 240°
2026-05-07 11:26 42.96727 23.94203 25279 ft 360 kts 240°
2026-05-07 11:26 42.95383 23.91287 24716 ft 362 kts 240°
2026-05-07 11:27 42.94051 23.88401 24373 ft 357 kts 240°
2026-05-07 11:27 42.92730 23.85544 23944 ft 355 kts 239°
2026-05-07 11:27 42.91416 23.82707 23500 ft 353 kts 239°
2026-05-07 11:27 42.90107 23.79889 22969 ft 348 kts 239°
2026-05-07 11:28 42.88819 23.77116 22148 ft 345 kts 239°
2026-05-07 11:28 42.87543 23.74371 21383 ft 341 kts 239°
2026-05-07 11:28 42.86280 23.71651 20661 ft 337 kts 239°
2026-05-07 11:28 42.85041 23.68984 20139 ft 328 kts 239°
2026-05-07 11:29 42.83841 23.66398 19700 ft 317 kts 239°
2026-05-07 11:29 42.82664 23.63869 19280 ft 317 kts 238°
2026-05-07 11:29 42.81481 23.61328 18852 ft 318 kts 238°
2026-05-07 11:29 42.80296 23.58789 18426 ft 315 kts 238°
2026-05-07 11:30 42.79139 23.56304 17974 ft 305 kts 240°
2026-05-07 11:30 42.78238 23.53763 17577 ft 293 kts 251°
2026-05-07 11:30 42.77737 23.51101 17193 ft 290 kts 262°
2026-05-07 11:30 42.77616 23.48373 16795 ft 288 kts 272°
2026-05-07 11:31 42.77774 23.45674 16396 ft 283 kts 274°
2026-05-07 11:31 42.77936 23.43037 15998 ft 276 kts 274°
2026-05-07 11:31 42.78091 23.40457 15589 ft 272 kts 274°
2026-05-07 11:31 42.78243 23.37906 15211 ft 270 kts 274°
2026-05-07 11:32 42.78550 23.32679 14353 ft 279 kts 273°
2026-05-07 11:32 42.78701 23.30074 13910 ft 274 kts 273°
2026-05-07 11:32 42.78852 23.27492 13328 ft 273 kts 273°
2026-05-07 11:33 42.79000 23.24971 12886 ft 268 kts 273°
2026-05-07 11:33 42.79148 23.22461 12447 ft 263 kts 272°
2026-05-07 11:33 42.79292 23.19976 11990 ft 257 kts 272°
2026-05-07 11:33 42.79431 23.17579 11540 ft 251 kts 272°
2026-05-07 11:34 42.79565 23.15262 11108 ft 246 kts 272°
2026-05-07 11:34 42.79696 23.12953 10669 ft 243 kts 272°
2026-05-07 11:34 42.79744 23.10688 10235 ft 236 kts 259°
2026-05-07 11:34 42.79211 23.08629 9796 ft 229 kts 236°
2026-05-07 11:35 42.78131 23.07077 9338 ft 227 kts 213°
2026-05-07 11:35 42.76690 23.06190 8611 ft 235 kts 194°
2026-05-07 11:35 42.75020 23.06089 7901 ft 246 kts 172°
2026-05-07 11:35 42.73415 23.06900 7320 ft 249 kts 149°
2026-05-07 11:36 42.72155 23.08516 6747 ft 253 kts 127°
2026-05-07 11:36 42.71468 23.10744 6065 ft 261 kts 101°
2026-05-07 11:36 42.71302 23.13175 5615 ft 254 kts 96°
2026-05-07 11:36 42.71177 23.15527 5282 ft 246 kts 96°
2026-05-07 11:37 42.71047 23.17823 4939 ft 240 kts 96°
2026-05-07 11:37 42.70918 23.20065 4625 ft 234 kts 97°
2026-05-07 11:37 42.70793 23.22220 4330 ft 225 kts 96°
2026-05-07 11:37 42.70674 23.24283 4063 ft 209 kts 97°
2026-05-07 11:38 42.70565 23.26148 3778 ft 189 kts 96°
2026-05-07 11:38 42.70468 23.27831 3555 ft 170 kts 97°
2026-05-07 11:38 42.70377 23.29364 3319 ft 156 kts 96°
2026-05-07 11:38 42.70292 23.30803 3098 ft 150 kts 96°
2026-05-07 11:39 42.70210 23.32201 2886 ft 147 kts 95°
2026-05-07 11:39 42.70129 23.33577 2682 ft 145 kts 95°
2026-05-07 11:39 42.70077 23.34483 2564 ft 145 kts 94°
2026-05-07 11:39 42.70002 23.35842 2392 ft 144 kts 94°
2026-05-07 11:40 42.69919 23.37190 2199 ft 142 kts 94°
2026-05-07 11:40 42.69852 23.38526 1996 ft 141 kts 96°
2026-05-07 11:40 42.69764 23.39851 1800 ft 140 kts 95°
2026-05-07 11:40 42.69682 23.41107 1790 ft 131 kts 94°
2026-05-07 11:41 42.69609 23.42496 2304 ft 155 kts 94°
2026-05-07 11:41 42.69544 23.43938 3007 ft 155 kts 94°
2026-05-07 11:41 42.69470 23.45514 3312 ft 182 kts 94°
2026-05-07 11:41 42.69393 23.47361 3670 ft 207 kts 94°
2026-05-07 11:42 42.69323 23.49407 4042 ft 224 kts 90°
2026-05-07 11:42 42.69729 23.51431 4079 ft 226 kts 57°
2026-05-07 11:42 42.70883 23.52825 4081 ft 224 kts 23°
2026-05-07 11:42 42.72408 23.53110 4093 ft 223 kts 348°
2026-05-07 11:43 42.73765 23.52207 4074 ft 218 kts 314°
2026-05-07 11:43 42.74494 23.50447 4080 ft 215 kts 283°
2026-05-07 11:43 42.74764 23.48434 4083 ft 216 kts 276°
2026-05-07 11:43 42.74973 23.46415 4085 ft 215 kts 275°
2026-05-07 11:44 42.75172 23.44394 4083 ft 215 kts 276°
2026-05-07 11:44 42.75366 23.42375 4074 ft 215 kts 276°
2026-05-07 11:44 42.75561 23.40363 4076 ft 215 kts 276°
2026-05-07 11:44 42.75760 23.38342 4069 ft 215 kts 276°
2026-05-07 11:45 42.75965 23.36320 4090 ft 216 kts 276°
2026-05-07 11:45 42.76171 23.34297 4084 ft 215 kts 276°
2026-05-07 11:45 42.76374 23.32277 4086 ft 215 kts 275°
2026-05-07 11:45 42.76580 23.30253 4089 ft 216 kts 276°
2026-05-07 11:46 42.76785 23.28246 4079 ft 209 kts 275°
2026-05-07 11:46 42.76692 23.26354 4092 ft 197 kts 250°
2026-05-07 11:46 42.76014 23.24794 4085 ft 191 kts 224°
2026-05-07 11:46 42.74910 23.23839 4066 ft 192 kts 200°
2026-05-07 11:47 42.73606 23.23560 3978 ft 190 kts 177°
2026-05-07 11:47 42.72326 23.23994 3938 ft 193 kts 155°
2026-05-07 11:47 42.71288 23.25053 3863 ft 181 kts 134°
2026-05-07 11:47 42.70670 23.26450 3699 ft 166 kts 114°
2026-05-07 11:48 42.70460 23.27924 3511 ft 155 kts 96°
2026-05-07 11:48 42.70378 23.29344 3317 ft 150 kts 96°
2026-05-07 11:48 42.70295 23.30758 3102 ft 147 kts 96°
2026-05-07 11:48 42.70214 23.32118 2897 ft 145 kts 95°
2026-05-07 11:49 42.70131 23.33531 2694 ft 150 kts 94°
2026-05-07 11:49 42.70061 23.34918 2481 ft 145 kts 94°
2026-05-07 11:49 42.69987 23.36273 2295 ft 143 kts 94°
2026-05-07 11:49 42.69904 23.37610 2129 ft 140 kts 95°
2026-05-07 11:50 42.69817 23.38939 1945 ft 141 kts 94°
2026-05-07 11:50 42.69737 23.40254 1768 ft 136 kts 95°
2026-05-07 11:50 42.69670 23.41354 1745 ft 93 kts 95°
2026-05-07 11:50 42.69632 23.41996 1750 ft 49 kts 94°
2026-05-07 11:51 42.69599 23.42429 1750 ft 43 kts 103°
2026-05-07 11:51 42.69494 23.42719 1748 ft 19 kts 127°
2026-05-07 11:51 42.69401 23.42686 1748 ft 17 kts 263°
2026-05-07 11:51 42.69411 23.42513 1745 ft 19 kts 275°
2026-05-07 11:52 42.69331 23.42417 1751 ft 18 kts 191°
2026-05-07 11:52 42.69233 23.42321 1746 ft 19 kts 250°
2026-05-07 11:52 42.69189 23.42138 1744 ft 21 kts 254°
2026-05-07 11:52 42.69147 23.41933 1748 ft 24 kts 253°
2026-05-07 11:53 42.69100 23.41717 1747 ft 24 kts 253°
2026-05-07 11:53 42.69051 23.41574 1746 ft 9 kts 234°
2026-05-07 11:53 42.69043 23.41551 1747 ft 1 kts 250°
2026-05-07 11:53 42.69040 23.41540 1748 ft 1 kts 251°
2026-05-07 11:54 42.69035 23.41518 1749 ft 2 kts 253°
2026-05-07 11:54 42.69034 23.41513 1749 ft 0 kts 253°